Time;durP1;ratioP1;P1;durP2;ratioP2;P2;SDS_P1;SDS_P2;PMS_P1;PMS_P2;Temp;Humidity;BMP_temperature;BMP_pressure;BME280_temperature;BME280_humidity;BME280_pressure;Samples;Min_cycle;Max_cycle;Signal;HPM_P1;HPM_P2
2022/08/25 00:01:25;;;;;;;;;;;;;;;23.73;53.23;99924.38;5052022;28;19917;-75
2022/08/25 00:03:51;;;;;;;;;;;;;;;23.66;53.70;99927.47;5052124;28;19966;-76
2022/08/25 00:06:17;;;;;;;;;;;;;;;23.64;53.27;99925.06;5052028;28;20019;-76
2022/08/25 00:08:42;;;;;;;;;;;;;;;23.58;54.47;99931.75;5052340;28;19916;-77
2022/08/25 00:11:13;;;;;;;;;;;;;;;23.60;53.50;99927.22;5052153;28;20518;-77
2022/08/25 00:13:41;;;;;;;;;;;;;;;23.49;54.08;99927.59;5052748;28;19917;-76
2022/08/25 00:16:07;;;;;;;;;;;;;;;23.52;53.44;99920.97;5052716;28;19916;-76
2022/08/25 00:18:32;;;;;;;;;;;;;;;23.41;54.12;99917.72;5052040;28;19955;-75
2022/08/25 00:20:58;;;;;;;;;;;;;;;23.38;53.93;99914.97;5052464;28;19956;-75
2022/08/25 00:23:23;;;;;;;;;;;;;;;23.37;54.70;99914.19;5052176;28;20264;-77
2022/08/25 00:25:49;;;;;;;;;;;;;;;23.42;54.53;99922.13;5052431;28;19952;-77
2022/08/25 00:28:15;;;;;;;;;;;;;;;23.39;53.82;99917.38;5052605;28;19960;-77
2022/08/25 00:30:41;;;;;;;;;;;;;;;23.46;53.70;99922.81;5052072;28;20390;-76
2022/08/25 00:33:09;;;;;;;;;;;;;;;23.43;53.50;99922.94;5052610;28;19956;-76
2022/08/25 00:35:35;;;;;;;;;;;;;;;23.43;53.19;99922.94;5052010;28;19917;-77
2022/08/25 00:38:01;;;;;;;;;;;;;;;23.40;52.62;99918.97;5052505;28;20164;-76
2022/08/25 00:40:27;;;;;;;;;;;;;;;23.37;52.90;99924.75;5052278;28;19917;-76
2022/08/25 00:42:53;;;;;;;;;;;;;;;23.32;53.24;99920.44;5051879;28;19917;-77
2022/08/25 00:45:18;;;;;;;;;;;;;;;23.27;53.31;99921.03;5052823;28;19917;-75
2022/08/25 00:47:44;;;;;;;;;;;;;;;23.29;54.08;99929.09;5051889;28;19916;-76
2022/08/25 00:50:10;;;;;;;;;;;;;;;23.21;54.49;99922.84;5052461;28;19916;-76
2022/08/25 00:52:56;;;;;;;;;;;;;;;23.26;53.93;99914.56;5051846;28;19916;-75
2022/08/25 00:55:28;;;;;;;;;;;;;;;23.20;54.04;99922.06;5051135;28;19924;-75
2022/08/25 00:57:59;;;;;;;;;;;;;;;23.19;54.28;99920.47;5055910;28;19988;-76
2022/08/25 01:00:24;;;;;;;;;;;;;;;23.14;54.40;99920.25;5055530;28;20376;-76
2022/08/25 01:02:50;;;;;;;;;;;;;;;23.11;54.44;99919.09;5072598;28;20011;-75
2022/08/25 01:05:17;;;;;;;;;;;;;;;23.25;56.79;99912.19;5055276;28;19956;-76
2022/08/25 01:07:42;;;;;;;;;;;;;;;23.14;54.92;99918.22;5055915;28;19920;-77
2022/08/25 01:10:09;;;;;;;;;;;;;;;23.11;55.32;99912.63;5055480;28;19962;-77
2022/08/25 01:12:36;;;;;;;;;;;;;;;23.11;55.93;99921.16;5055338;28;20368;-76
2022/08/25 01:15:03;;;;;;;;;;;;;;;23.14;55.28;99911.75;5055038;28;19959;-76
2022/08/25 01:17:33;;;;;;;;;;;;;;;23.11;55.20;99915.47;5054876;28;19931;-76
2022/08/25 01:19:58;;;;;;;;;;;;;;;23.07;55.74;99906.31;5055538;28;20360;-76
2022/08/25 01:22:26;;;;;;;;;;;;;;;23.11;55.22;99912.63;5054990;28;19917;-77
2022/08/25 01:25:04;;;;;;;;;;;;;;;22.99;55.92;99917.88;5054916;28;19999;-77
2022/08/25 01:27:29;;;;;;;;;;;;;;;22.94;56.65;99909.94;5054819;28;19916;-77
2022/08/25 01:29:56;;;;;;;;;;;;;;;22.96;56.17;99906.66;5055435;28;19917;-76
2022/08/25 01:32:22;;;;;;;;;;;;;;;22.92;56.35;99906.75;5055049;28;19921;-76
2022/08/25 01:34:48;;;;;;;;;;;;;;;22.84;57.25;99905.34;5054758;28;19940;-76
2022/08/25 01:37:15;;;;;;;;;;;;;;;22.87;58.52;99901.63;5054570;28;19924;-76
2022/08/25 01:39:40;;;;;;;;;;;;;;;22.85;57.99;99897.63;5055158;28;19917;-77
2022/08/25 01:42:07;;;;;;;;;;;;;;;23.30;58.01;99897.41;5054853;28;20378;-75
2022/08/25 01:44:34;;;;;;;;;;;;;;;23.13;58.11;99901.66;5071214;28;19917;-77
2022/08/25 01:47:00;;;;;;;;;;;;;;;23.30;56.70;99886.06;5054485;28;19924;-76
2022/08/25 01:49:25;;;;;;;;;;;;;;;23.11;56.73;99879.38;5054975;28;20003;-76
2022/08/25 01:51:54;;;;;;;;;;;;;;;22.98;57.09;99882.25;5054372;28;19920;-75
2022/08/25 01:54:19;;;;;;;;;;;;;;;22.94;57.31;99890.06;5054352;28;20012;-76
2022/08/25 01:56:45;;;;;;;;;;;;;;;22.96;57.20;99879.09;5054251;28;20003;-77
2022/08/25 01:59:13;;;;;;;;;;;;;;;22.89;57.37;99887.00;5057311;28;19927;-76
2022/08/25 02:01:38;;;;;;;;;;;;;;;23.19;58.54;99874.28;5057542;28;19924;-76
2022/08/25 02:04:04;;;;;;;;;;;;;;;22.97;57.32;99875.00;5057513;28;19916;-76
2022/08/25 02:06:31;;;;;;;;;;;;;;;22.89;57.55;99870.78;5057378;28;19916;-76
2022/08/25 02:08:59;;;;;;;;;;;;;;;22.82;58.14;99868.16;5056935;28;20359;-77
2022/08/25 02:11:25;;;;;;;;;;;;;;;22.75;58.12;99872.03;5057307;28;19920;-77
2022/08/25 02:13:53;;;;;;;;;;;;;;;22.73;58.29;99866.00;5057610;28;20007;-76
2022/08/25 02:16:22;;;;;;;;;;;;;;;22.64;58.80;99867.94;5057769;28;19916;-76
2022/08/25 02:18:47;;;;;;;;;;;;;;;22.92;59.95;99872.72;5057207;28;19970;-77
2022/08/25 02:21:13;;;;;;;;;;;;;;;22.93;59.78;99874.31;5057395;28;19945;-77
2022/08/25 02:23:38;;;;;;;;;;;;;;;23.50;58.97;99872.38;5057039;28;19917;-76
2022/08/25 02:26:04;;;;;;;;;;;;;;;23.42;59.64;99871.03;5057567;28;19924;-76
2022/08/25 02:28:29;;;;;;;;;;;;;;;23.32;57.71;99866.50;5056946;28;20408;-75
2022/08/25 02:30:55;;;;;;;;;;;;;;;23.22;57.35;99874.16;5056962;28;19923;-76
2022/08/25 02:33:21;;;;;;;;;;;;;;;23.09;57.44;99861.25;5057210;28;19948;-76
2022/08/25 02:35:46;;;;;;;;;;;;;;;23.14;58.13;99861.47;5056899;28;19938;-76
2022/08/25 02:38:12;;;;;;;;;;;;;;;23.18;55.94;99867.03;5057292;28;19920;-76
2022/08/25 02:40:37;;;;;;;;;;;;;;;23.12;57.06;99868.84;5056786;28;20430;-76
2022/08/25 02:43:05;;;;;;;;;;;;;;;23.05;57.79;99863.41;5056663;28;19920;-77
2022/08/25 02:45:31;;;;;;;;;;;;;;;22.99;58.02;99861.13;5056679;28;19921;-76
2022/08/25 02:47:56;;;;;;;;;;;;;;;23.06;58.67;99860.09;5056634;28;19970;-75
2022/08/25 02:50:22;;;;;;;;;;;;;;;23.00;56.61;99854.19;5056330;28;19920;-76
2022/08/25 02:52:50;;;;;;;;;;;;;;;23.00;58.71;99862.72;5056588;28;19916;-76
2022/08/25 02:55:16;;;;;;;;;;;;;;;23.17;57.93;99854.88;5056488;28;19924;-76
2022/08/25 02:57:42;;;;;;;;;;;;;;;23.14;57.80;99849.31;5056339;28;19920;-76
2022/08/25 03:00:11;;;;;;;;;;;;;;;23.09;57.39;99855.56;5055832;28;20004;-75
2022/08/25 03:02:37;;;;;;;;;;;;;;;22.97;58.76;99846.63;5056439;28;19916;-76
2022/08/25 03:05:03;;;;;;;;;;;;;;;22.93;58.32;99845.94;5056106;28;20428;-77
2022/08/25 03:07:29;;;;;;;;;;;;;;;22.94;58.82;99847.53;5056196;28;19924;-76
2022/08/25 03:09:54;;;;;;;;;;;;;;;22.93;62.03;99850.81;5056112;28;19916;-76
2022/08/25 03:12:21;;;;;;;;;;;;;;;22.86;59.30;99851.81;5056102;28;19916;-76
2022/08/25 03:14:46;;;;;;;;;;;;;;;22.77;59.75;99843.19;5056640;28;19924;-75
2022/08/25 03:17:14;;;;;;;;;;;;;;;22.96;60.20;99855.59;5056070;28;20264;-76
2022/08/25 03:19:40;;;;;;;;;;;;;;;22.87;60.20;99853.41;5055729;28;19916;-77
2022/08/25 03:22:05;;;;;;;;;;;;;;;22.46;60.13;99840.94;5056342;28;20264;-76
2022/08/25 03:24:31;;;;;;;;;;;;;;;22.88;59.86;99840.84;5056644;28;20295;-76
2022/08/25 03:26:56;;;;;;;;;;;;;;;22.62;58.76;99836.41;5056060;28;20359;-76
2022/08/25 03:29:23;;;;;;;;;;;;;;;22.54;58.88;99820.88;5055974;28;20007;-75
2022/08/25 03:31:49;;;;;;;;;;;;;;;22.65;61.82;99830.63;5056520;28;19998;-77
2022/08/25 03:34:15;;;;;;;;;;;;;;;22.72;57.62;99829.59;5055887;28;20362;-76
2022/08/25 03:36:41;;;;;;;;;;;;;;;22.75;58.00;99829.47;5055820;28;19985;-76
2022/08/25 03:39:07;;;;;;;;;;;;;;;22.89;58.37;99833.13;5056730;28;20344;-75
2022/08/25 03:41:33;;;;;;;;;;;;;;;22.97;59.55;99837.31;5055850;28;19916;-76
2022/08/25 03:43:59;;;;;;;;;;;;;;;22.86;58.85;99840.47;5056272;28;19928;-74
2022/08/25 03:46:28;;;;;;;;;;;;;;;22.78;59.42;99841.94;5056486;28;19917;-75
2022/08/25 03:48:53;;;;;;;;;;;;;;;23.11;60.90;99838.88;5055739;28;19917;-77
2022/08/25 03:51:23;;;;;;;;;;;;;;;22.99;59.20;99835.59;5056236;28;19923;-76
2022/08/25 03:53:49;;;;;;;;;;;;;;;23.18;60.58;99828.09;5055653;28;19917;-75
2022/08/25 03:56:15;;;;;;;;;;;;;;;23.01;58.87;99823.81;5055616;28;19931;-76
2022/08/25 03:58:40;;;;;;;;;;;;;;;22.86;59.62;99831.19;5055678;28;20402;-75
2022/08/25 04:01:05;;;;;;;;;;;;;;;22.83;60.17;99830.03;5055627;28;20015;-76
2022/08/25 04:03:31;;;;;;;;;;;;;;;22.73;61.91;99831.97;5056206;28;19973;-76
2022/08/25 04:05:59;;;;;;;;;;;;;;;22.80;61.21;99828.13;5055907;28;20382;-77
2022/08/25 04:08:25;;;;;;;;;;;;;;;22.99;61.48;99827.09;5055641;28;19916;-75
2022/08/25 04:10:50;;;;;;;;;;;;;;;23.33;61.11;99831.22;5055622;28;19917;-74
2022/08/25 04:13:17;;;;;;;;;;;;;;;23.14;58.98;99837.97;5055552;28;20018;-75
2022/08/25 04:15:42;;;;;;;;;;;;;;;23.08;59.54;99839.78;5055539;28;19920;-76
2022/08/25 04:18:13;;;;;;;;;;;;;;;22.93;58.74;99839.47;5055391;28;19917;-77
2022/08/25 04:20:42;;;;;;;;;;;;;;;22.77;59.08;99839.56;5055684;28;19916;-76
2022/08/25 04:23:08;;;;;;;;;;;;;;;22.70;59.08;99838.56;5055452;28;19916;-77
2022/08/25 04:25:33;;;;;;;;;;;;;;;22.85;60.91;99841.72;5056151;28;20351;-75
2022/08/25 04:27:59;;;;;;;;;;;;;;;22.63;59.88;99840.81;5055626;28;19924;-76
2022/08/25 04:30:24;;;;;;;;;;;;;;;22.84;61.35;99842.16;5055635;28;20279;-76
2022/08/25 04:32:49;;;;;;;;;;;;;;;22.71;60.19;99845.03;5058833;28;20259;-76
2022/08/25 04:35:15;;;;;;;;;;;;;;;22.64;59.28;99843.22;5059165;28;19965;-76
2022/08/25 04:37:41;;;;;;;;;;;;;;;22.62;59.33;99840.03;5059469;28;19917;-76
2022/08/25 04:40:06;;;;;;;;;;;;;;;22.52;60.28;99844.00;5058998;28;19924;-77
2022/08/25 04:42:32;;;;;;;;;;;;;;;22.50;60.35;99849.31;5058868;28;19990;-77
2022/08/25 04:44:58;;;;;;;;;;;;;;;22.97;61.74;99852.28;5059705;28;19961;-76
2022/08/25 04:47:26;;;;;;;;;;;;;;;22.93;59.95;99845.94;5058927;28;19917;-76
2022/08/25 04:49:57;;;;;;;;;;;;;;;22.89;59.33;99845.25;5059148;28;20367;-76
2022/08/25 04:52:23;;;;;;;;;;;;;;;22.83;59.47;99852.72;5059076;28;19917;-76
2022/08/25 04:54:48;;;;;;;;;;;;;;;22.77;60.13;99854.53;5058721;28;20347;-77
2022/08/25 04:57:13;;;;;;;;;;;;;;;22.74;59.92;99858.28;5059251;28;19916;-77
2022/08/25 04:59:39;;;;;;;;;;;;;;;22.95;61.05;99860.44;5055141;28;20003;-76
2022/08/25 05:02:05;;;;;;;;;;;;;;;22.95;59.30;99853.97;5055533;28;19917;-77
2022/08/25 05:04:31;;;;;;;;;;;;;;;23.06;59.20;99859.31;5055463;28;20015;-76
2022/08/25 05:06:57;;;;;;;;;;;;;;;23.26;59.09;99852.13;5055169;28;19916;-76
2022/08/25 05:09:25;;;;;;;;;;;;;;;23.44;58.70;99854.34;5055419;28;19966;-76
2022/08/25 05:11:51;;;;;;;;;;;;;;;23.57;57.97;99857.13;5055068;28;20386;-76
2022/08/25 05:14:20;;;;;;;;;;;;;;;23.71;57.10;99858.72;5055344;28;19923;-76
2022/08/25 05:16:45;;;;;;;;;;;;;;;23.84;56.46;99850.91;5054799;28;19923;-77
2022/08/25 05:19:11;;;;;;;;;;;;;;;24.15;55.39;99853.03;5055841;28;20007;-77
2022/08/25 05:21:37;;;;;;;;;;;;;;;24.53;54.81;99855.63;5054991;28;19917;-76
2022/08/25 05:24:02;;;;;;;;;;;;;;;24.89;53.51;99852.16;5055460;28;19917;-77
2022/08/25 05:26:29;;;;;;;;;;;;;;;25.49;52.44;99857.34;5054988;28;20371;-76
2022/08/25 05:28:55;;;;;;;;;;;;;;;25.99;52.50;99858.00;5054735;28;20063;-77
2022/08/25 05:31:22;;;;;;;;;;;;;;;26.47;49.72;99855.38;5054739;28;19963;-77
2022/08/25 05:33:47;;;;;;;;;;;;;;;26.82;48.23;99866.34;5055176;28;19921;-78
2022/08/25 05:36:13;;;;;;;;;;;;;;;26.98;45.87;99865.94;5054806;28;20257;-76
2022/08/25 05:38:40;;;;;;;;;;;;;;;27.31;46.07;99865.16;5054458;28;20363;-76
2022/08/25 05:41:09;;;;;;;;;;;;;;;27.63;44.44;99861.41;5054219;28;19921;-77
2022/08/25 05:43:34;;;;;;;;;;;;;;;27.95;43.96;99856.09;5053424;28;19921;-76
2022/08/25 05:46:00;;;;;;;;;;;;;;;28.12;43.77;99851.47;5054523;28;19924;-76
2022/08/25 05:48:26;;;;;;;;;;;;;;;28.14;43.60;99851.00;5054419;28;19917;-77
2022/08/25 05:50:56;;;;;;;;;;;;;;;28.10;43.77;99851.19;5054466;28;19920;-77
2022/08/25 05:53:22;;;;;;;;;;;;;;;27.84;44.16;99867.31;5054646;28;20023;-78
2022/08/25 05:55:49;;;;;;;;;;;;;;;27.54;46.44;99861.50;5054022;28;19963;-77
2022/08/25 05:58:15;;;;;;;;;;;;;;;27.29;46.48;99862.78;5056816;28;20359;-77
2022/08/25 06:00:40;;;;;;;;;;;;;;;27.08;46.55;99864.66;5057781;28;19917;-76
2022/08/25 06:03:06;;;;;;;;;;;;;;;26.92;46.53;99862.19;5056947;28;19920;-76
2022/08/25 06:05:34;;;;;;;;;;;;;;;27.01;46.53;99861.34;5056751;28;19962;-77
2022/08/25 06:07:59;;;;;;;;;;;;;;;26.81;47.70;99864.78;5057179;28;20008;-77
2022/08/25 06:10:25;;;;;;;;;;;;;;;26.88;45.46;99862.34;5057905;28;20065;-77
2022/08/25 06:12:50;;;;;;;;;;;;;;;26.87;46.44;99857.13;5057299;28;20393;-76
2022/08/25 06:15:17;;;;;;;;;;;;;;;26.74;47.10;99856.53;5057223;28;19966;-77
2022/08/25 06:17:43;;;;;;;;;;;;;;;26.75;45.58;99858.16;5056748;28;19920;-76
2022/08/25 06:20:10;;;;;;;;;;;;;;;26.75;48.27;99858.16;5057274;28;19924;-78
2022/08/25 06:22:36;;;;;;;;;;;;;;;26.72;47.54;99850.53;5057198;28;19916;-77
2022/08/25 06:25:02;;;;;;;;;;;;;;;26.36;46.21;99855.06;5057501;28;19924;-76
2022/08/25 06:27:27;;;;;;;;;;;;;;;26.49;48.90;99850.00;5057984;28;19916;-76
2022/08/25 06:29:53;;;;;;;;;;;;;;;26.72;47.97;99847.69;5057069;28;19985;-77
2022/08/25 06:32:18;;;;;;;;;;;;;;;26.90;45.90;99844.75;5056034;28;19916;-76
2022/08/25 06:34:44;;;;;;;;;;;;;;;27.08;46.09;99846.75;5056995;28;19946;-77
2022/08/25 06:37:09;;;;;;;;;;;;;;;27.24;45.00;99842.69;5057203;28;19916;-76
2022/08/25 06:39:34;;;;;;;;;;;;;;;27.38;44.92;99847.66;5056889;28;19939;-76
2022/08/25 06:42:00;;;;;;;;;;;;;;;27.46;44.79;99845.22;5057142;28;19917;-77
2022/08/25 06:44:26;;;;;;;;;;;;;;;27.54;44.81;99844.38;5056731;28;20290;-77
2022/08/25 06:46:52;;;;;;;;;;;;;;;27.71;45.03;99843.94;5057256;28;19956;-76
2022/08/25 06:49:17;;;;;;;;;;;;;;;27.74;44.99;99845.81;5056637;28;20371;-77
2022/08/25 06:51:43;;;;;;;;;;;;;;;27.85;44.53;99846.03;5057067;28;20014;-76
2022/08/25 06:54:11;;;;;;;;;;;;;;;27.53;43.41;99844.84;5056577;28;19917;-76
2022/08/25 06:56:38;;;;;;;;;;;;;;;27.71;43.67;99841.09;5040784;28;19924;-76
2022/08/25 06:59:04;;;;;;;;;;;;;;;27.75;43.05;99844.53;5055905;28;19921;-76
2022/08/25 07:01:30;;;;;;;;;;;;;;;27.50;44.49;99842.97;5056903;28;20002;-76
2022/08/25 07:04:01;;;;;;;;;;;;;;;27.74;44.08;99845.81;5056243;28;19931;-76
2022/08/25 07:06:28;;;;;;;;;;;;;;;28.03;42.86;99848.72;5056411;28;19945;-77
2022/08/25 07:08:53;;;;;;;;;;;;;;;28.23;42.57;99841.50;5056320;28;20287;-75
2022/08/25 07:11:21;;;;;;;;;;;;;;;28.55;42.26;99834.84;5056186;28;19917;-74
2022/08/25 07:13:47;;;;;;;;;;;;;;;28.51;41.46;99831.38;5056251;28;19963;-76
2022/08/25 07:16:16;;;;;;;;;;;;;;;28.66;41.02;99828.50;5056775;28;19966;-75
2022/08/25 07:18:43;;;;;;;;;;;;;;;28.80;40.88;99832.59;5056031;28;19921;-76
2022/08/25 07:21:08;;;;;;;;;;;;;;;29.18;41.77;99835.25;5056620;28;19934;-76
2022/08/25 07:23:34;;;;;;;;;;;;;;;29.62;39.84;99837.16;5056376;28;20329;-76
2022/08/25 07:26:11;;;;;;;;;;;;;;;30.24;38.07;99832.88;5056238;28;19916;-76
2022/08/25 07:28:37;;;;;;;;;;;;;;;30.23;37.98;99837.03;5056298;28;19920;-76
2022/08/25 07:31:05;;;;;;;;;;;;;;;29.25;39.37;99839.00;5056017;28;19939;-77
2022/08/25 07:33:31;;;;;;;;;;;;;;;29.58;39.11;99839.47;5055788;28;19999;-76
2022/08/25 07:35:56;;;;;;;;;;;;;;;29.10;40.45;99845.59;5055825;28;19959;-77
2022/08/25 07:38:22;;;;;;;;;;;;;;;29.42;40.32;99848.59;5055667;28;19928;-76
2022/08/25 07:40:53;;;;;;;;;;;;;;;29.51;40.48;99857.06;5056653;28;19916;-77
2022/08/25 07:43:22;;;;;;;;;;;;;;;29.43;39.91;99853.03;5055962;28;19924;-78
2022/08/25 07:45:47;;;;;;;;;;;;;;;29.60;40.77;99859.81;5056294;28;19917;-76
2022/08/25 07:48:13;;;;;;;;;;;;;;;29.62;39.13;99856.44;5055619;28;20389;-77
2022/08/25 07:50:46;;;;;;;;;;;;;;;30.18;38.28;99854.22;5056207;28;19966;-77
2022/08/25 07:53:13;;;;;;;;;;;;;;;30.28;37.00;99849.88;5055562;28;20011;-77
2022/08/25 07:55:40;;;;;;;;;;;;;;;30.45;37.24;99847.94;5055510;28;19917;-76
2022/08/25 07:58:06;;;;;;;;;;;;;;;30.81;35.27;99850.59;5056035;28;19978;-78
2022/08/25 08:00:33;;;;;;;;;;;;;;;31.64;33.65;99858.94;5056228;28;20015;-77
2022/08/25 08:03:02;;;;;;;;;;;;;;;32.04;33.08;99862.72;5055758;28;20441;-78
2022/08/25 08:05:27;;;;;;;;;;;;;;;32.31;33.03;99864.06;5055754;28;19959;-77
2022/08/25 08:07:53;;;;;;;;;;;;;;;32.11;32.86;99862.19;5059234;28;19963;-78
2022/08/25 08:10:19;;;;;;;;;;;;;;;31.73;33.64;99855.81;5059516;28;20090;-78
2022/08/25 08:12:45;;;;;;;;;;;;;;;32.03;33.67;99864.81;5060118;28;19920;-77
2022/08/25 08:15:10;;;;;;;;;;;;;;;32.53;32.02;99864.09;5059843;28;20385;-78
2022/08/25 08:17:36;;;;;;;;;;;;;;;32.31;33.16;99864.84;5059626;28;19922;-77
2022/08/25 08:20:05;;;;;;;;;;;;;;;31.94;34.41;99864.25;5059576;28;19921;-78
2022/08/25 08:22:30;;;;;;;;;;;;;;;31.74;34.43;99856.59;5059574;28;20374;-77
2022/08/25 08:24:57;;;;;;;;;;;;;;;31.62;34.15;99854.97;5059705;28;19917;-78
2022/08/25 08:27:23;;;;;;;;;;;;;;;31.52;33.96;99863.03;5059321;28;19932;-79
2022/08/25 08:29:48;;;;;;;;;;;;;;;32.00;33.38;99853.56;5059614;28;19943;-78
2022/08/25 08:32:14;;;;;;;;;;;;;;;32.05;32.04;99867.16;5059300;28;20278;-76
2022/08/25 08:34:40;;;;;;;;;;;;;;;32.24;32.00;99858.84;5059131;28;19916;-77
2022/08/25 08:37:06;;;;;;;;;;;;;;;32.18;31.89;99855.97;5059545;28;19924;-77
2022/08/25 08:39:32;;;;;;;;;;;;;;;32.29;32.12;99861.72;5058969;28;20355;-78
2022/08/25 08:42:17;;;;;;;;;;;;;;;31.89;32.99;99856.41;5058641;28;19917;-77
2022/08/25 08:44:46;;;;;;;;;;;;;;;32.10;33.21;99854.09;5057817;28;19916;-79
2022/08/25 08:47:30;;;;;;;;;;;;;;;31.69;34.14;99858.13;5058793;28;19926;-78
2022/08/25 08:50:02;;;;;;;;;;;;;;;31.94;32.64;99858.50;5058676;28;19916;-78
2022/08/25 08:52:42;;;;;;;;;;;;;;;32.14;33.31;99858.28;5058819;28;19924;-78
2022/08/25 08:55:23;;;;;;;;;;;;;;;31.73;34.00;99858.69;5058685;28;19924;-78
2022/08/25 08:57:50;;;;;;;;;;;;;;;32.51;33.01;99863.06;5058624;28;19923;-77
2022/08/25 09:00:16;;;;;;;;;;;;;;;32.67;32.22;99862.28;5054612;28;19960;-77
2022/08/25 09:02:45;;;;;;;;;;;;;;;32.85;31.13;99860.94;5055481;28;19927;-77
2022/08/25 09:05:13;;;;;;;;;;;;;;;33.45;30.94;99863.47;5072695;28;19920;-78
2022/08/25 09:07:44;;;;;;;;;;;;;;;33.27;31.60;99865.63;5055458;28;19995;-78
2022/08/25 09:10:09;;;;;;;;;;;;;;;33.41;30.48;99872.44;5055795;28;19923;-77
2022/08/25 09:12:45;;;;;;;;;;;;;;;32.98;31.52;99863.34;5055690;28;20302;-77
2022/08/25 09:15:14;;;;;;;;;;;;;;;33.55;30.94;99864.75;5055281;28;19917;-77
2022/08/25 09:17:39;;;;;;;;;;;;;;;33.30;30.49;99866.66;5071570;28;19923;-77
2022/08/25 09:20:19;;;;;;;;;;;;;;;32.92;31.25;99865.41;5071517;28;20007;-78
2022/08/25 09:22:59;;;;;;;;;;;;;;;31.47;33.24;99863.81;5055082;28;19967;-77
2022/08/25 09:25:29;;;;;;;;;;;;;;;32.10;32.61;99860.63;5054929;28;20004;-78
2022/08/25 09:28:06;;;;;;;;;;;;;;;32.96;31.68;99848.66;5071526;28;19963;-77
2022/08/25 09:30:53;;;;;;;;;;;;;;;32.87;31.29;99849.72;5054890;28;19917;-77
2022/08/25 09:33:21;;;;;;;;;;;;;;;32.64;31.65;99848.13;5054865;28;19921;-77
2022/08/25 09:35:46;;;;;;;;;;;;;;;32.68;31.72;99852.34;5054680;28;20019;-78
2022/08/25 09:38:12;;;;;;;;;;;;;;;32.78;30.84;99856.50;5054587;28;20055;-76
2022/08/25 09:40:43;;;;;;;;;;;;;;;32.94;31.37;99854.16;5054959;28;19917;-78
2022/08/25 09:43:27;;;;;;;;;;;;;;;33.20;30.39;99857.50;5055192;28;19968;-79
2022/08/25 09:46:09;;;;;;;;;;;;;;;33.79;29.54;99850.50;5071825;28;19917;-77
2022/08/25 09:48:45;;;;;;;;;;;;;;;33.20;30.36;99856.72;5055074;28;20271;-77
2022/08/25 09:51:16;;;;;;;;;;;;;;;32.73;31.48;99848.66;5071728;28;20306;-77
2022/08/25 09:53:46;;;;;;;;;;;;;;;32.99;31.06;99847.63;5071483;28;19928;-78
2022/08/25 09:56:12;;;;;;;;;;;;;;;32.37;31.88;99855.47;5054604;28;19920;-77
2022/08/25 09:58:38;;;;;;;;;;;;;;;33.22;31.11;99843.34;5054054;28;20442;-77
2022/08/25 10:01:05;;;;;;;;;;;;;;;33.05;31.15;99846.28;5054926;28;19916;-78
2022/08/25 10:03:31;;;;;;;;;;;;;;;33.25;31.27;99842.31;5054719;28;19939;-77
2022/08/25 10:06:06;;;;;;;;;;;;;;;33.05;31.50;99839.75;5053916;28;20395;-78
2022/08/25 10:08:33;;;;;;;;;;;;;;;31.88;33.80;99843.34;5054174;28;19924;-77
2022/08/25 10:11:00;;;;;;;;;;;;;;;32.48;32.08;99843.94;5053921;28;19921;-76
2022/08/25 10:13:34;;;;;;;;;;;;;;;32.78;32.10;99839.22;5054499;28;20314;-78
2022/08/25 10:16:08;;;;;;;;;;;;;;;32.75;31.98;99848.91;5054313;28;19962;-76
2022/08/25 10:18:33;;;;;;;;;;;;;;;32.49;32.30;99852.09;5053927;28;19923;-77
2022/08/25 10:21:17;;;;;;;;;;;;;;;33.15;31.43;99838.13;5054090;28;20026;-75
2022/08/25 10:23:48;;;;;;;;;;;;;;;32.66;32.02;99839.78;5054260;28;19924;-76
2022/08/25 10:26:32;;;;;;;;;;;;;;;32.42;32.77;99831.66;5054501;28;19923;-76
2022/08/25 10:29:04;;;;;;;;;;;;;;;31.95;33.77;99837.06;5070059;28;19924;-78
2022/08/25 10:31:42;;;;;;;;;;;;;;;31.69;34.36;99831.47;5053361;28;20019;-75
2022/08/25 10:34:17;;;;;;;;;;;;;;;31.74;34.39;99825.72;5070248;28;20330;-77
2022/08/25 10:36:42;;;;;;;;;;;;;;;31.11;35.09;99823.13;5070186;28;19920;-76
2022/08/25 10:39:10;;;;;;;;;;;;;;;31.02;35.35;99820.44;5069982;28;19966;-77
2022/08/25 10:41:42;;;;;;;;;;;;;;;30.39;36.35;99827.00;5054060;28;19917;-75
2022/08/25 10:45:41;;;;;;;;;;;;;;;30.41;36.72;99832.25;5053096;28;19916;-77
2022/08/25 10:47:08;;;;;;;;;;;;;;;30.27;36.72;99829.00;5054002;28;19917;-78
2022/08/25 10:50:00;;;;;;;;;;;;;;;30.37;36.59;99828.84;5070222;28;19917;-77
2022/08/25 10:52:35;;;;;;;;;;;;;;;30.42;36.78;99819.50;5037142;28;19917;-77
2022/08/25 10:55:10;;;;;;;;;;;;;;;30.20;37.49;99820.06;5053170;28;19917;-76
2022/08/25 10:57:55;;;;;;;;;;;;;;;30.04;38.44;99830.03;5053499;28;19921;-76
2022/08/25 11:00:22;;;;;;;;;;;;;;;29.78;38.72;99814.94;5069090;28;20391;-75
2022/08/25 11:02:56;;;;;;;;;;;;;;;29.92;38.47;99817.66;5053295;28;19917;-77
2022/08/25 11:05:39;;;;;;;;;;;;;;;30.15;38.44;99807.25;5069837;28;19927;-78
2022/08/25 11:08:14;;;;;;;;;;;;;;;29.96;38.32;99818.25;5053442;28;19917;-76
2022/08/25 11:10:43;;;;;;;;;;;;;;;30.46;37.51;99806.44;5069512;28;19960;-78
2022/08/25 11:13:12;;;;;;;;;;;;;;;30.81;36.89;99810.41;5053494;28;19979;-78
2022/08/25 11:15:44;;;;;;;;;;;;;;;30.84;36.84;99806.47;5052723;28;19916;-77
2022/08/25 11:18:11;;;;;;;;;;;;;;;30.82;36.82;99811.97;5053467;28;20320;-77
2022/08/25 11:21:01;;;;;;;;;;;;;;;30.80;37.04;99811.69;5052874;28;20012;-78
2022/08/25 11:23:30;;;;;;;;;;;;;;;31.48;36.43;99811.56;5053634;28;20340;-77
2022/08/25 11:26:12;;;;;;;;;;;;;;;31.22;36.36;99811.69;5053564;28;19952;-78
2022/08/25 11:28:37;;;;;;;;;;;;;;;31.66;36.31;99798.81;5053175;28;20295;-78
2022/08/25 11:31:03;;;;;;;;;;;;;;;31.42;36.22;99804.19;5069526;28;19916;-77
2022/08/25 11:33:29;;;;;;;;;;;;;;;31.18;35.81;99804.59;5052927;28;19923;-76
2022/08/25 11:36:01;;;;;;;;;;;;;;;31.37;36.38;99793.47;5052712;28;19960;-77
2022/08/25 11:38:29;;;;;;;;;;;;;;;31.65;35.96;99796.44;5053287;28;19917;-77
2022/08/25 11:41:20;;;;;;;;;;;;;;;31.24;36.12;99797.56;5068587;28;19917;-77
2022/08/25 11:43:52;;;;;;;;;;;;;;;30.93;36.49;99794.78;5053100;28;20368;-76
2022/08/25 11:46:38;;;;;;;;;;;;;;;30.78;35.91;99790.00;5069344;28;20405;-76
2022/08/25 11:49:06;;;;;;;;;;;;;;;31.12;35.94;99795.16;5069846;28;19971;-78
2022/08/25 11:51:42;;;;;;;;;;;;;;;30.94;36.65;99790.63;5069256;28;19923;-77
2022/08/25 11:54:26;;;;;;;;;;;;;;;30.85;37.29;99793.72;5053050;28;20280;-77
2022/08/25 11:56:51;;;;;;;;;;;;;;;31.11;36.39;99794.38;5053025;28;19979;-78
2022/08/25 11:59:35;;;;;;;;;;;;;;;31.21;36.92;99806.44;5069222;28;19925;-78
2022/08/25 12:02:01;;;;;;;;;;;;;;;30.99;36.16;99804.22;5069205;28;20359;-76
2022/08/25 12:04:38;;;;;;;;;;;;;;;31.59;35.25;99799.31;5054441;28;19917;-77
2022/08/25 12:07:12;;;;;;;;;;;;;;;31.98;35.52;99801.50;5052263;28;19917;-76
2022/08/25 12:09:55;;;;;;;;;;;;;;;32.26;34.92;99793.69;5053694;28;19924;-75
2022/08/25 12:12:42;;;;;;;;;;;;;;;32.14;34.76;99797.09;5052686;28;19982;-76
2022/08/25 12:15:15;;;;;;;;;;;;;;;32.20;34.27;99797.88;5032249;28;19940;-77
2022/08/25 12:17:40;;;;;;;;;;;;;;;31.34;35.19;99783.81;5052265;28;19921;-75
2022/08/25 12:20:07;;;;;;;;;;;;;;;31.59;34.51;99784.94;5052345;28;20363;-75
2022/08/25 12:22:33;;;;;;;;;;;;;;;31.88;34.94;99780.84;5052244;28;19923;-79
2022/08/25 12:24:58;;;;;;;;;;;;;;;31.67;34.54;99782.31;5068926;28;20294;-76
2022/08/25 12:27:24;;;;;;;;;;;;;;;32.34;33.71;99771.72;5053015;28;19917;-76
2022/08/25 12:29:49;;;;;;;;;;;;;;;32.89;33.08;99774.28;5069342;28;20024;-77
2022/08/25 12:32:34;;;;;;;;;;;;;;;33.46;31.86;99769.91;5069443;28;19960;-77
2022/08/25 12:35:09;;;;;;;;;;;;;;;33.07;32.26;99762.94;5051664;28;20015;-77
2022/08/25 12:37:52;;;;;;;;;;;;;;;32.96;31.87;99768.75;5068782;28;20023;-75
2022/08/25 12:40:24;;;;;;;;;;;;;;;32.52;32.80;99767.53;5052669;28;20375;-78
2022/08/25 12:42:59;;;;;;;;;;;;;;;32.53;33.69;99768.31;5052079;28;19924;-79
2022/08/25 12:45:29;;;;;;;;;;;;;;;32.58;33.99;99770.41;5051907;28;20325;-78
2022/08/25 12:48:15;;;;;;;;;;;;;;;32.55;34.47;99768.59;5069370;28;19917;-76
2022/08/25 12:50:42;;;;;;;;;;;;;;;32.65;34.72;99771.94;5051830;28;19923;-76
2022/08/25 12:53:28;;;;;;;;;;;;;;;32.80;34.22;99764.59;5054131;28;19917;-76
2022/08/25 12:55:56;;;;;;;;;;;;;;;32.64;34.99;99768.28;5048114;28;19984;-76